Time;durP1;ratioP1;P1;durP2;ratioP2;P2;SDS_P1;SDS_P2;PMS_P1;PMS_P2;Temp;Humidity;BMP_temperature;BMP_pressure;BME280_temperature;BME280_humidity;BME280_pressure;Samples;Min_cycle;Max_cycle;Signal;HPM_P1;HPM_P2
2021/01/28 00:02:17;;;;;;;14.20;6.85;;;;;;;;;;1786734;78;21202;-73
2021/01/28 00:04:43;;;;;;;15.98;7.62;;;;;;;;;;1788731;78;21135;-74
2021/01/28 00:07:09;;;;;;;16.55;7.80;;;;;;;;;;1785626;78;21201;-72
2021/01/28 00:09:36;;;;;;;14.10;6.75;;;;;;;;;;1785069;78;21773;-73
2021/01/28 00:12:02;;;;;;;12.68;6.72;;;;;;;;;;1787051;80;21217;-72
2021/01/28 00:14:28;;;;;;;15.18;8.08;;;;;;;;;;1788861;78;21637;-75
2021/01/28 00:16:54;;;;;;;14.78;7.67;;;;;;;;;;1787815;80;21150;-73
2021/01/28 00:19:20;;;;;;;15.48;7.90;;;;;;;;;;1788339;78;21189;-72
2021/01/28 00:21:46;;;;;;;16.15;7.53;;;;;;;;;;1787199;80;21162;-73
2021/01/28 00:24:13;;;;;;;14.90;7.80;;;;;;;;;;1787588;78;21186;-73
2021/01/28 00:26:39;;;;;;;18.37;9.13;;;;;;;;;;1787397;80;21884;-74
2021/01/28 00:29:05;;;;;;;15.85;8.00;;;;;;;;;;1788379;78;21192;-72
2021/01/28 00:31:31;;;;;;;15.05;7.37;;;;;;;;;;1788496;78;21178;-73
2021/01/28 00:33:57;;;;;;;14.28;7.97;;;;;;;;;;1787146;80;21166;-74
2021/01/28 00:36:24;;;;;;;18.37;8.00;;;;;;;;;;1787451;78;21166;-73
2021/01/28 00:38:50;;;;;;;15.60;8.80;;;;;;;;;;1788470;78;21178;-73
2021/01/28 00:41:16;;;;;;;18.32;8.53;;;;;;;;;;1786611;80;21169;-74
2021/01/28 00:43:42;;;;;;;19.50;8.60;;;;;;;;;;1789310;78;21217;-74
2021/01/28 00:46:08;;;;;;;16.37;8.95;;;;;;;;;;1788630;78;21744;-73
2021/01/28 00:48:34;;;;;;;18.07;8.95;;;;;;;;;;1787592;78;21217;-73
2021/01/28 00:51:01;;;;;;;15.65;8.03;;;;;;;;;;1787969;78;21159;-74
2021/01/28 00:53:27;;;;;;;16.12;8.63;;;;;;;;;;1787661;78;21127;-75
2021/01/28 00:55:54;;;;;;;15.63;7.33;;;;;;;;;;1789911;78;21217;-73
2021/01/28 00:58:21;;;;;;;12.53;7.12;;;;;;;;;;1784853;80;21626;-74
2021/01/28 01:00:47;;;;;;;16.35;8.28;;;;;;;;;;1796994;80;21174;-73
2021/01/28 01:03:15;;;;;;;18.07;8.28;;;;;;;;;;1799251;80;21130;-74
2021/01/28 01:05:41;;;;;;;14.78;7.40;;;;;;;;;;1816383;78;21183;-74
2021/01/28 01:08:09;;;;;;;13.98;7.17;;;;;;;;;;1837358;78;21163;-75
2021/01/28 01:10:43;;;;;;;15.40;7.80;;;;;;;;;;1837387;78;21164;-74
2021/01/28 01:13:11;;;;;;;16.45;7.40;;;;;;;;;;1835812;78;21154;-73
2021/01/28 01:15:37;;;;;;;17.37;7.97;;;;;;;;;;1816394;78;21154;-75
2021/01/28 01:18:04;;;;;;;11.28;5.65;;;;;;;;;;1801202;78;21158;-73
2021/01/28 01:20:30;;;;;;;12.60;5.35;;;;;;;;;;1801285;80;21103;-73
2021/01/28 01:22:56;;;;;;;13.22;6.70;;;;;;;;;;1801207;80;21138;-73
2021/01/28 01:25:22;;;;;;;13.75;7.03;;;;;;;;;;1801399;80;21134;-73
2021/01/28 01:27:49;;;;;;;13.18;6.42;;;;;;;;;;1801182;78;21213;-73
2021/01/28 01:30:16;;;;;;;14.40;6.80;;;;;;;;;;1801064;78;21170;-75
2021/01/28 01:32:42;;;;;;;12.88;6.47;;;;;;;;;;1801234;80;21150;-74
2021/01/28 01:35:09;;;;;;;14.55;7.47;;;;;;;;;;1803451;78;21933;-73
2021/01/28 01:37:35;;;;;;;14.53;7.15;;;;;;;;;;1837345;78;21750;-72
2021/01/28 01:40:02;;;;;;;13.62;7.03;;;;;;;;;;1837369;78;21143;-73
2021/01/28 01:42:28;;;;;;;11.05;6.25;;;;;;;;;;1837415;78;21555;-71
2021/01/28 01:44:54;;;;;;;11.88;6.50;;;;;;;;;;1800812;78;21188;-73
2021/01/28 01:47:28;;;;;;;12.35;6.10;;;;;;;;;;1769721;80;21588;-73
2021/01/28 01:49:54;;;;;;;13.38;7.10;;;;;;;;;;1769951;80;21144;-73
2021/01/28 01:52:21;;;;;;;11.43;5.22;;;;;;;;;;1782735;78;21600;-74
2021/01/28 01:54:47;;;;;;;9.93;6.55;;;;;;;;;;1796341;78;21160;-75
2021/01/28 01:57:21;;;;;;;10.45;5.78;;;;;;;;;;1796645;80;21149;-72
2021/01/28 01:59:51;;;;;;;14.47;7.40;;;;;;;;;;1818734;78;21167;-72
2021/01/28 02:02:19;;;;;;;11.53;5.78;;;;;;;;;;1824071;78;21572;-73
2021/01/28 02:04:45;;;;;;;8.93;5.10;;;;;;;;;;1822557;79;21159;-75
2021/01/28 02:07:13;;;;;;;11.65;6.83;;;;;;;;;;1822329;79;21567;-74
2021/01/28 02:09:39;;;;;;;8.73;5.00;;;;;;;;;;1822202;79;21579;-74
2021/01/28 02:12:06;;;;;;;12.95;5.65;;;;;;;;;;1792721;79;21189;-73
2021/01/28 02:14:32;;;;;;;11.78;6.55;;;;;;;;;;1822138;78;21143;-73
2021/01/28 02:17:03;;;;;;;10.08;5.95;;;;;;;;;;1822117;78;21699;-72
2021/01/28 02:19:37;;;;;;;10.08;5.28;;;;;;;;;;1822369;79;21124;-72
2021/01/28 02:22:03;;;;;;;13.10;6.45;;;;;;;;;;1818457;79;21410;-73
2021/01/28 02:24:34;;;;;;;11.28;6.05;;;;;;;;;;1822375;79;21202;-74
2021/01/28 02:27:01;;;;;;;13.62;5.97;;;;;;;;;;1822245;79;21143;-74
2021/01/28 02:29:28;;;;;;;10.25;5.37;;;;;;;;;;1822279;78;21184;-73
2021/01/28 02:31:54;;;;;;;12.88;6.70;;;;;;;;;;1822468;79;21160;-73
2021/01/28 02:34:20;;;;;;;9.20;5.30;;;;;;;;;;1822186;79;21379;-73
2021/01/28 02:36:48;;;;;;;9.93;4.92;;;;;;;;;;1822224;79;21159;-74
2021/01/28 02:39:15;;;;;;;10.55;6.10;;;;;;;;;;1822198;79;21610;-74
2021/01/28 02:41:42;;;;;;;12.47;6.50;;;;;;;;;;1822209;79;21104;-75
2021/01/28 02:44:08;;;;;;;7.95;4.33;;;;;;;;;;1818577;78;21116;-74
2021/01/28 02:46:34;;;;;;;6.40;4.08;;;;;;;;;;1819457;78;21108;-73
2021/01/28 02:49:00;;;;;;;11.97;5.72;;;;;;;;;;1828894;78;21131;-74
2021/01/28 02:51:27;;;;;;;10.68;6.58;;;;;;;;;;1822913;78;21163;-72
2021/01/28 02:53:53;;;;;;;10.53;6.08;;;;;;;;;;1819283;79;21153;-72
2021/01/28 02:56:22;;;;;;;11.08;5.83;;;;;;;;;;1819442;79;21192;-73
2021/01/28 02:58:48;;;;;;;11.05;5.28;;;;;;;;;;1820434;79;21160;-73
2021/01/28 03:01:15;;;;;;;10.23;5.47;;;;;;;;;;1821384;79;21131;-74
2021/01/28 03:03:41;;;;;;;11.70;7.20;;;;;;;;;;1819307;79;21616;-73
2021/01/28 03:06:07;;;;;;;14.85;4.95;;;;;;;;;;1816818;78;21148;-73
2021/01/28 03:08:33;;;;;;;13.08;6.40;;;;;;;;;;1808527;79;21568;-73
2021/01/28 03:11:00;;;;;;;13.08;6.85;;;;;;;;;;1808773;79;21207;-73
2021/01/28 03:13:26;;;;;;;12.33;5.58;;;;;;;;;;1805760;79;21123;-73
2021/01/28 03:15:52;;;;;;;13.15;7.22;;;;;;;;;;1786042;79;21158;-73
2021/01/28 03:18:19;;;;;;;10.08;5.33;;;;;;;;;;1737821;82;21199;-74
2021/01/28 03:20:45;;;;;;;14.98;7.62;;;;;;;;;;1748668;82;21585;-73
2021/01/28 03:23:11;;;;;;;13.85;7.20;;;;;;;;;;1737502;82;22263;-72
2021/01/28 03:25:37;;;;;;;10.13;6.15;;;;;;;;;;1761009;81;21171;-73
2021/01/28 03:28:04;;;;;;;12.70;6.80;;;;;;;;;;1781276;80;21192;-73
2021/01/28 03:30:41;;;;;;;12.40;6.35;;;;;;;;;;1751785;82;21214;-74
2021/01/28 03:33:08;;;;;;;14.13;6.30;;;;;;;;;;1783235;79;21182;-73
2021/01/28 03:35:35;;;;;;;16.30;7.12;;;;;;;;;;1788844;79;21587;-73
2021/01/28 03:38:01;;;;;;;18.60;7.70;;;;;;;;;;1813526;79;21192;-73
2021/01/28 03:40:28;;;;;;;15.90;7.65;;;;;;;;;;1833621;78;21164;-73
2021/01/28 03:42:54;;;;;;;12.40;6.55;;;;;;;;;;1833974;78;21264;-74
2021/01/28 03:45:20;;;;;;;14.33;7.47;;;;;;;;;;1821654;78;21155;-73
2021/01/28 03:47:46;;;;;;;14.03;6.58;;;;;;;;;;1821224;79;21218;-74
2021/01/28 03:50:14;;;;;;;15.30;8.13;;;;;;;;;;1821077;79;21164;-75
2021/01/28 03:52:40;;;;;;;14.47;7.72;;;;;;;;;;1817775;79;21144;-74
2021/01/28 03:55:07;;;;;;;14.40;6.65;;;;;;;;;;1812586;79;21156;-73
2021/01/28 03:57:33;;;;;;;17.32;7.58;;;;;;;;;;1812760;79;21191;-74
2021/01/28 03:59:59;;;;;;;14.45;7.47;;;;;;;;;;1812486;79;21610;-73
2021/01/28 04:02:25;;;;;;;14.10;7.67;;;;;;;;;;1803059;79;21164;-73
2021/01/28 04:04:52;;;;;;;17.60;8.28;;;;;;;;;;1782462;80;21127;-73
2021/01/28 04:07:18;;;;;;;13.43;6.87;;;;;;;;;;1782535;80;21567;-73
2021/01/28 04:09:44;;;;;;;15.50;8.03;;;;;;;;;;1782303;80;21155;-74
2021/01/28 04:12:10;;;;;;;12.78;6.67;;;;;;;;;;1782401;80;21583;-72
2021/01/28 04:14:36;;;;;;;12.88;6.83;;;;;;;;;;1801892;79;21136;-73
2021/01/28 04:17:02;;;;;;;12.45;6.58;;;;;;;;;;1812580;79;21176;-74
2021/01/28 04:19:28;;;;;;;11.12;6.42;;;;;;;;;;1812636;79;21144;-72
2021/01/28 04:21:55;;;;;;;14.28;7.28;;;;;;;;;;1812507;79;21120;-73
2021/01/28 04:24:21;;;;;;;16.37;7.08;;;;;;;;;;1812581;79;21599;-74
2021/01/28 04:26:47;;;;;;;13.08;6.42;;;;;;;;;;1812843;79;21217;-73
2021/01/28 04:29:13;;;;;;;10.55;5.80;;;;;;;;;;1813225;79;21623;-73
2021/01/28 04:31:39;;;;;;;12.43;6.00;;;;;;;;;;1812386;78;21143;-72
2021/01/28 04:34:05;;;;;;;10.08;5.33;;;;;;;;;;1790404;79;21266;-74
2021/01/28 04:36:32;;;;;;;14.05;6.92;;;;;;;;;;1807332;78;21164;-73
2021/01/28 04:38:58;;;;;;;11.88;6.67;;;;;;;;;;1833813;78;21187;-74
2021/01/28 04:41:25;;;;;;;12.40;6.58;;;;;;;;;;1817356;78;21664;-75
2021/01/28 04:43:51;;;;;;;13.35;7.65;;;;;;;;;;1812994;79;21604;-74
2021/01/28 04:46:31;;;;;;;10.60;5.42;;;;;;;;;;1805859;79;21169;-73
2021/01/28 04:48:57;;;;;;;10.93;6.35;;;;;;;;;;1805078;79;21145;-72
2021/01/28 04:51:26;;;;;;;12.03;6.75;;;;;;;;;;1805390;79;21172;-73
2021/01/28 04:53:53;;;;;;;14.03;6.03;;;;;;;;;;1805021;78;21564;-73
2021/01/28 04:56:22;;;;;;;9.63;5.45;;;;;;;;;;1790102;80;21307;-73
2021/01/28 04:58:49;;;;;;;8.43;4.95;;;;;;;;;;1788675;80;21159;-72
2021/01/28 05:01:15;;;;;;;8.80;5.00;;;;;;;;;;1737410;81;21191;-72
2021/01/28 05:03:49;;;;;;;12.43;6.08;;;;;;;;;;1767057;81;21197;-74
2021/01/28 05:06:15;;;;;;;13.83;6.20;;;;;;;;;;1774753;80;21154;-72
2021/01/28 05:08:41;;;;;;;12.58;5.95;;;;;;;;;;1790550;80;21167;-72
2021/01/28 05:11:09;;;;;;;9.93;5.30;;;;;;;;;;1790493;80;21127;-72
2021/01/28 05:13:37;;;;;;;15.00;7.30;;;;;;;;;;1771618;80;21588;-73
2021/01/28 05:16:05;;;;;;;11.15;6.08;;;;;;;;;;1796229;80;21542;-72
2021/01/28 05:18:33;;;;;;;9.75;5.72;;;;;;;;;;1786504;80;21594;-72
2021/01/28 05:21:09;;;;;;;14.03;6.55;;;;;;;;;;1798515;80;21625;-73
2021/01/28 05:23:37;;;;;;;13.38;6.10;;;;;;;;;;1798685;79;21151;-72
2021/01/28 05:26:05;;;;;;;13.60;6.15;;;;;;;;;;1798522;79;21138;-75
2021/01/28 05:28:37;;;;;;;10.15;5.72;;;;;;;;;;1791816;79;21616;-74
2021/01/28 05:31:03;;;;;;;13.53;5.90;;;;;;;;;;1790137;80;21143;-72
2021/01/28 05:33:31;;;;;;;10.35;6.17;;;;;;;;;;1765389;80;21561;-73
2021/01/28 05:36:11;;;;;;;13.55;6.97;;;;;;;;;;1783353;80;21170;-72
2021/01/28 05:38:51;;;;;;;12.53;5.72;;;;;;;;;;1798694;79;21738;-73
2021/01/28 05:41:33;;;;;;;11.18;6.15;;;;;;;;;;1798381;80;21159;-72
2021/01/28 05:44:15;;;;;;;9.73;5.58;;;;;;;;;;1788461;80;21553;-75
2021/01/28 05:46:41;;;;;;;14.80;4.53;;;;;;;;;;1798673;80;21143;-73
2021/01/28 05:49:12;;;;;;;13.13;5.65;;;;;;;;;;1798696;80;21607;-73
2021/01/28 05:51:43;;;;;;;10.45;5.72;;;;;;;;;;1798697;80;21574;-75
2021/01/28 05:54:16;;;;;;;15.23;6.47;;;;;;;;;;1804970;78;21188;-73
2021/01/28 05:56:53;;;;;;;12.90;5.55;;;;;;;;;;1833508;78;21277;-76
2021/01/28 05:59:24;;;;;;;15.13;7.67;;;;;;;;;;1827728;78;21116;-73
2021/01/28 06:02:09;;;;;;;17.35;8.45;;;;;;;;;;1822650;78;21112;-74
2021/01/28 06:04:37;;;;;;;16.97;7.63;;;;;;;;;;1812650;78;21143;-74
2021/01/28 06:07:05;;;;;;;12.20;6.22;;;;;;;;;;1812089;78;21192;-72
2021/01/28 06:09:42;;;;;;;14.07;6.70;;;;;;;;;;1812857;78;21104;-71
2021/01/28 06:12:26;;;;;;;14.60;7.37;;;;;;;;;;1810834;78;21202;-74
2021/01/28 06:15:00;;;;;;;14.97;7.20;;;;;;;;;;1810230;78;21841;-75
2021/01/28 06:17:28;;;;;;;17.98;6.83;;;;;;;;;;1810414;78;21176;-72
2021/01/28 06:20:05;;;;;;;14.85;7.50;;;;;;;;;;1812263;78;21571;-73
2021/01/28 06:22:50;;;;;;;19.50;7.75;;;;;;;;;;1808539;78;21107;-73
2021/01/28 06:25:25;;;;;;;12.33;7.03;;;;;;;;;;1811259;77;21195;-73
2021/01/28 06:27:53;;;;;;;15.43;7.13;;;;;;;;;;1809212;78;21580;-73
2021/01/28 06:30:23;;;;;;;14.55;7.47;;;;;;;;;;1781302;79;21610;-73
2021/01/28 06:32:51;;;;;;;14.00;6.90;;;;;;;;;;1780646;79;21159;-72
2021/01/28 06:35:19;;;;;;;13.05;6.55;;;;;;;;;;1778256;79;21923;-76
2021/01/28 06:37:47;;;;;;;17.30;7.12;;;;;;;;;;1771846;79;21803;-73
2021/01/28 06:40:15;;;;;;;14.50;6.78;;;;;;;;;;1808419;78;21951;-75
2021/01/28 06:42:46;;;;;;;16.42;7.58;;;;;;;;;;1807159;78;21571;-73
2021/01/28 06:45:17;;;;;;;12.88;6.80;;;;;;;;;;1811735;78;21606;-72
2021/01/28 06:47:45;;;;;;;11.95;6.20;;;;;;;;;;1802247;78;21147;-75
2021/01/28 06:50:19;;;;;;;18.85;5.95;;;;;;;;;;1814070;78;21206;-73
2021/01/28 06:52:50;;;;;;;12.63;7.03;;;;;;;;;;1812058;78;21129;-74
2021/01/28 06:55:27;;;;;;;13.93;7.40;;;;;;;;;;1819949;78;21163;-74
2021/01/28 06:57:55;;;;;;;13.98;6.35;;;;;;;;;;1805278;78;21096;-73
2021/01/28 07:00:35;;;;;;;18.62;8.45;;;;;;;;;;1800111;79;21152;-74
2021/01/28 07:03:03;;;;;;;11.45;7.05;;;;;;;;;;1808684;78;21695;-73
2021/01/28 07:05:37;;;;;;;12.78;7.10;;;;;;;;;;1816935;79;21116;-74
2021/01/28 07:08:14;;;;;;;14.87;6.97;;;;;;;;;;1777416;79;21213;-73
2021/01/28 07:10:40;;;;;;;16.75;8.60;;;;;;;;;;1791124;78;21112;-76
2021/01/28 07:13:11;;;;;;;18.87;7.83;;;;;;;;;;1792113;78;21549;-75
2021/01/28 07:15:38;;;;;;;17.75;7.83;;;;;;;;;;1785267;78;21154;-75
2021/01/28 07:18:06;;;;;;;16.50;8.33;;;;;;;;;;1793768;78;21173;-74
2021/01/28 07:20:38;;;;;;;15.53;7.62;;;;;;;;;;1789687;78;21218;-74
2021/01/28 07:23:18;;;;;;;15.43;6.97;;;;;;;;;;1797678;78;21165;-74
2021/01/28 07:25:44;;;;;;;17.02;8.25;;;;;;;;;;1763307;78;21311;-75
2021/01/28 07:28:15;;;;;;;16.23;7.12;;;;;;;;;;1801526;78;21128;-74
2021/01/28 07:30:48;;;;;;;18.17;7.95;;;;;;;;;;1785066;78;21205;-75
2021/01/28 07:33:25;;;;;;;13.83;7.83;;;;;;;;;;1734540;81;21162;-77
2021/01/28 07:35:56;;;;;;;13.62;7.20;;;;;;;;;;1759612;79;21187;-80
2021/01/28 07:38:31;;;;;;;16.07;7.90;;;;;;;;;;1794910;79;21111;-77
2021/01/28 07:40:59;;;;;;;16.93;7.30;;;;;;;;;;1783649;79;21134;-73
2021/01/28 07:43:26;;;;;;;16.85;7.25;;;;;;;;;;1772793;79;21627;-74
2021/01/28 07:46:10;;;;;;;15.23;8.08;;;;;;;;;;1788310;80;21244;-76
2021/01/28 07:48:37;;;;;;;19.40;7.30;;;;;;;;;;1780016;79;21194;-75
2021/01/28 07:51:21;;;;;;;14.70;6.70;;;;;;;;;;1739353;82;21204;-74
2021/01/28 07:53:49;;;;;;;17.65;6.60;;;;;;;;;;1713210;83;21639;-74
2021/01/28 07:56:34;;;;;;;14.90;7.42;;;;;;;;;;1748917;81;21150;-80
2021/01/28 07:59:19;;;;;;;16.00;6.95;;;;;;;;;;1819505;78;21763;-75
2021/01/28 08:14:56;;;;;;;13.18;5.87;;;;;;;;;;1822546;77;22781;-78
2021/01/28 08:17:25;;;;;;;15.15;6.42;;;;;;;;;;1794642;80;21154;-76
2021/01/28 08:19:51;;;;;;;14.83;6.87;;;;;;;;;;1795090;80;21151;-76
2021/01/28 08:22:18;;;;;;;16.57;8.18;;;;;;;;;;1795369;80;21163;-77
2021/01/28 08:24:56;;;;;;;13.70;5.65;;;;;;;;;;1795252;80;21206;-77
2021/01/28 08:27:30;;;;;;;12.20;6.45;;;;;;;;;;1795325;80;21170;-77
2021/01/28 08:30:01;;;;;;;13.17;6.83;;;;;;;;;;1795547;80;21163;-77
2021/01/28 08:32:28;;;;;;;13.10;6.55;;;;;;;;;;1794333;78;21598;-77
2021/01/28 08:34:58;;;;;;;8.88;4.85;;;;;;;;;;1795576;80;21113;-77
2021/01/28 08:37:24;;;;;;;9.30;5.30;;;;;;;;;;1795386;80;21148;-77
2021/01/28 08:39:54;;;;;;;12.82;6.60;;;;;;;;;;1795342;80;21124;-77
2021/01/28 08:42:21;;;;;;;10.70;6.12;;;;;;;;;;1795141;80;21645;-77
2021/01/28 08:44:48;;;;;;;11.40;5.80;;;;;;;;;;1795539;80;21158;-77
2021/01/28 08:47:18;;;;;;;10.38;4.45;;;;;;;;;;1795333;80;21587;-77
2021/01/28 08:50:01;;;;;;;10.90;5.95;;;;;;;;;;1795205;80;21143;-77
2021/01/28 08:52:27;;;;;;;10.10;5.10;;;;;;;;;;1795308;80;21277;-77
2021/01/28 08:54:53;;;;;;;10.48;5.72;;;;;;;;;;1795605;80;21163;-77
2021/01/28 08:57:20;;;;;;;9.30;5.03;;;;;;;;;;1795309;80;21113;-76
2021/01/28 08:59:50;;;;;;;10.63;5.67;;;;;;;;;;1773703;80;21142;-76
2021/01/28 09:02:18;;;;;;;11.48;5.85;;;;;;;;;;1722218;83;21179;-77
2021/01/28 09:04:45;;;;;;;9.55;5.37;;;;;;;;;;1764227;81;21191;-77
2021/01/28 09:07:11;;;;;;;9.25;5.15;;;;;;;;;;1763779;81;21155;-76
2021/01/28 09:09:37;;;;;;;13.80;6.28;;;;;;;;;;1693500;83;21188;-76
2021/01/28 09:12:17;;;;;;;13.53;6.47;;;;;;;;;;1763927;81;21191;-76
2021/01/28 09:14:43;;;;;;;18.90;8.20;;;;;;;;;;1739519;82;21147;-76
2021/01/28 09:17:23;;;;;;;13.00;6.50;;;;;;;;;;1777279;81;21131;-76
2021/01/28 09:19:53;;;;;;;10.80;5.40;;;;;;;;;;1743326;82;21143;-75
2021/01/28 09:22:33;;;;;;;11.05;5.95;;;;;;;;;;1777182;81;21163;-77
2021/01/28 09:25:00;;;;;;;10.00;5.45;;;;;;;;;;1742335;82;21175;-75
2021/01/28 09:27:29;;;;;;;11.48;5.78;;;;;;;;;;1777133;81;21630;-78
2021/01/28 09:29:55;;;;;;;9.70;4.97;;;;;;;;;;1740377;81;21598;-79
2021/01/28 09:32:26;;;;;;;9.18;4.85;;;;;;;;;;1777039;81;21147;-77
2021/01/28 09:35:14;;;;;;;9.50;5.25;;;;;;;;;;1743516;82;21167;-78
2021/01/28 09:37:42;;;;;;;14.95;5.50;;;;;;;;;;1776720;81;21159;-78
2021/01/28 09:40:15;;;;;;;9.08;4.75;;;;;;;;;;1777200;81;21590;-78
2021/01/28 09:42:42;;;;;;;12.98;6.05;;;;;;;;;;1743113;82;21159;-78
